sensor_id;sensor_type;location;lat;lon;timestamp;pressure;altitude;pressure_sealevel;temperature;humidity
63808;BME280;49961;43.970;22.868;2022-10-15T00:00:21;101917.97;;;14.35;100.00
63808;BME280;49961;43.970;22.868;2022-10-15T00:01:21;101919.63;;;14.33;100.00
63808;BME280;49961;43.970;22.868;2022-10-15T00:02:22;101920.84;;;14.32;100.00
63808;BME280;49961;43.970;22.868;2022-10-15T00:03:22;101912.97;;;14.27;100.00
63808;BME280;49961;43.970;22.868;2022-10-15T00:04:22;101918.53;;;14.27;100.00
63808;BME280;49961;43.970;22.868;2022-10-15T00:05:23;101916.63;;;14.24;100.00
63808;BME280;49961;43.970;22.868;2022-10-15T00:06:23;101919.06;;;14.18;100.00
63808;BME280;49961;43.970;22.868;2022-10-15T00:07:24;101915.94;;;14.16;100.00
63808;BME280;49961;43.970;22.868;2022-10-15T00:08:24;101907.75;;;14.06;100.00
63808;BME280;49961;43.970;22.868;2022-10-15T00:09:25;101919.97;;;14.12;100.00
63808;BME280;49961;43.970;22.868;2022-10-15T00:10:25;101911.75;;;14.05;100.00
63808;BME280;49961;43.970;22.868;2022-10-15T00:11:27;101917.69;;;14.07;100.00
63808;BME280;49961;43.970;22.868;2022-10-15T00:12:27;101921.03;;;13.98;100.00
63808;BME280;49961;43.970;22.868;2022-10-15T00:13:28;101923.81;;;13.98;100.00
63808;BME280;49961;43.970;22.868;2022-10-15T00:14:28;101920.66;;;13.96;100.00
63808;BME280;49961;43.970;22.868;2022-10-15T00:15:29;101862.44;;;13.56;100.00
63808;BME280;49961;43.970;22.868;2022-10-15T00:16:30;101923.53;;;13.93;100.00
63808;BME280;49961;43.970;22.868;2022-10-15T00:17:32;101925.56;;;13.89;100.00
63808;BME280;49961;43.970;22.868;2022-10-15T00:18:33;101920.00;;;13.89;100.00
63808;BME280;49961;43.970;22.868;2022-10-15T00:19:33;101933.94;;;13.89;100.00
63808;BME280;49961;43.970;22.868;2022-10-15T00:20:34;101928.44;;;13.85;100.00
63808;BME280;49961;43.970;22.868;2022-10-15T00:21:34;101928.03;;;13.83;100.00
63808;BME280;49961;43.970;22.868;2022-10-15T00:22:35;101930.81;;;13.83;100.00
63808;BME280;49961;43.970;22.868;2022-10-15T00:23:36;101924.91;;;13.81;100.00
63808;BME280;49961;43.970;22.868;2022-10-15T00:24:37;101925.75;;;13.78;100.00
63808;BME280;49961;43.970;22.868;2022-10-15T00:25:37;101922.94;;;13.78;100.00
63808;BME280;49961;43.970;22.868;2022-10-15T00:26:41;101920.59;;;13.77;100.00
63808;BME280;49961;43.970;22.868;2022-10-15T00:27:41;101934.97;;;13.75;100.00
63808;BME280;49961;43.970;22.868;2022-10-15T00:28:42;101931.03;;;13.73;100.00
63808;BME280;49961;43.970;22.868;2022-10-15T00:29:42;101923.84;;;13.72;100.00
63808;BME280;49961;43.970;22.868;2022-10-15T00:30:43;101918.28;;;13.72;100.00
63808;BME280;49961;43.970;22.868;2022-10-15T00:31:43;101921.06;;;13.72;100.00
63808;BME280;49961;43.970;22.868;2022-10-15T00:32:44;101927.06;;;13.70;100.00
63808;BME280;49961;43.970;22.868;2022-10-15T00:33:44;101928.25;;;13.69;100.00
63808;BME280;49961;43.970;22.868;2022-10-15T00:34:45;101923.13;;;13.68;100.00
63808;BME280;49961;43.970;22.868;2022-10-15T00:35:46;101931.50;;;13.68;100.00
63808;BME280;49961;43.970;22.868;2022-10-15T00:36:49;101935.91;;;13.65;100.00
63808;BME280;49961;43.970;22.868;2022-10-15T00:37:49;101927.13;;;13.67;100.00
63808;BME280;49961;43.970;22.868;2022-10-15T00:38:50;101925.94;;;13.68;100.00
63808;BME280;49961;43.970;22.868;2022-10-15T00:39:51;101927.06;;;13.70;100.00
63808;BME280;49961;43.970;22.868;2022-10-15T00:40:51;101928.22;;;13.73;100.00
63808;BME280;49961;43.970;22.868;2022-10-15T00:41:52;101924.72;;;13.69;100.00
63808;BME280;49961;43.970;22.868;2022-10-15T00:42:52;101916.03;;;13.63;100.00
63808;BME280;49961;43.970;22.868;2022-10-15T00:45:21;101919.06;;;13.72;100.00
63808;BME280;49961;43.970;22.868;2022-10-15T00:46:34;101830.03;;;13.19;100.00
63808;BME280;49961;43.970;22.868;2022-10-15T00:47:42;101881.44;;;13.38;100.00
63808;BME280;49961;43.970;22.868;2022-10-15T00:48:45;101917.44;;;13.75;100.00
63808;BME280;49961;43.970;22.868;2022-10-15T00:50:24;101917.44;;;13.75;100.00
63808;BME280;49961;43.970;22.868;2022-10-15T00:51:31;101918.25;;;13.75;100.00
63808;BME280;49961;43.970;22.868;2022-10-15T00:52:45;101926.16;;;13.77;100.00
63808;BME280;49961;43.970;22.868;2022-10-15T00:53:53;101917.03;;;13.76;100.00
63808;BME280;49961;43.970;22.868;2022-10-15T00:54:58;101923.75;;;13.79;100.00
63808;BME280;49961;43.970;22.868;2022-10-15T00:56:00;101919.34;;;13.81;100.00
63808;BME280;49961;43.970;22.868;2022-10-15T00:57:01;101903.56;;;13.71;100.00
63808;BME280;49961;43.970;22.868;2022-10-15T00:58:14;101921.63;;;13.86;100.00
63808;BME280;49961;43.970;22.868;2022-10-15T00:59:17;101920.00;;;13.89;100.00
63808;BME280;49961;43.970;22.868;2022-10-15T01:00:19;101917.56;;;13.91;100.00
63808;BME280;49961;43.970;22.868;2022-10-15T01:01:20;101919.50;;;13.94;100.00
63808;BME280;49961;43.970;22.868;2022-10-15T01:02:20;101921.44;;;13.97;100.00
63808;BME280;49961;43.970;22.868;2022-10-15T01:03:21;101918.66;;;13.97;100.00
63808;BME280;49961;43.970;22.868;2022-10-15T01:04:22;101874.63;;;13.65;100.00
63808;BME280;49961;43.970;22.868;2022-10-15T01:05:23;101900.19;;;13.83;100.00
63808;BME280;49961;43.970;22.868;2022-10-15T01:06:24;101923.69;;;14.05;100.00
63808;BME280;49961;43.970;22.868;2022-10-15T01:07:25;101916.91;;;14.06;100.00
63808;BME280;49961;43.970;22.868;2022-10-15T01:08:25;101923.63;;;14.09;100.00
63808;BME280;49961;43.970;22.868;2022-10-15T01:09:26;101917.19;;;14.12;100.00
63808;BME280;49961;43.970;22.868;2022-10-15T01:10:34;101927.50;;;14.15;100.00
63808;BME280;49961;43.970;22.868;2022-10-15T01:11:45;101929.88;;;14.16;100.00
63808;BME280;49961;43.970;22.868;2022-10-15T01:13:13;101926.25;;;14.19;100.00
63808;BME280;49961;43.970;22.868;2022-10-15T01:15:48;101919.84;;;14.22;100.00
63808;BME280;49961;43.970;22.868;2022-10-15T01:21:32;101921.81;;;14.22;100.00
63808;BME280;49961;43.970;22.868;2022-10-15T01:27:45;101921.75;;;14.25;100.00
63808;BME280;49961;43.970;22.868;2022-10-15T01:31:22;101845.41;;;13.73;100.00
63808;BME280;49961;43.970;22.868;2022-10-15T01:32:34;101918.19;;;14.25;100.00
63808;BME280;49961;43.970;22.868;2022-10-15T01:33:44;101920.91;;;14.28;100.00
63808;BME280;49961;43.970;22.868;2022-10-15T01:36:12;101919.69;;;14.29;100.00
63808;BME280;49961;43.970;22.868;2022-10-15T01:37:35;101920.50;;;14.30;100.00
63808;BME280;49961;43.970;22.868;2022-10-15T01:38:59;101919.63;;;14.33;100.00
63808;BME280;49961;43.970;22.868;2022-10-15T01:40:08;101862.25;;;13.89;100.00
63808;BME280;49961;43.970;22.868;2022-10-15T01:41:39;101924.84;;;14.31;100.00
63808;BME280;49961;43.970;22.868;2022-10-15T01:42:56;101916.91;;;14.29;100.00
63808;BME280;49961;43.970;22.868;2022-10-15T01:44:11;101921.25;;;14.30;100.00
63808;BME280;49961;43.970;22.868;2022-10-15T01:45:19;101859.91;;;13.88;100.00
63808;BME280;49961;43.970;22.868;2022-10-15T01:46:52;101920.50;;;14.30;100.00
63808;BME280;49961;43.970;22.868;2022-10-15T01:47:56;101912.97;;;14.27;100.00
63808;BME280;49961;43.970;22.868;2022-10-15T01:49:01;101920.06;;;14.31;100.00
63808;BME280;49961;43.970;22.868;2022-10-15T01:50:05;101926.41;;;14.32;100.00
63808;BME280;49961;43.970;22.868;2022-10-15T01:51:09;101927.22;;;14.32;100.00
63808;BME280;49961;43.970;22.868;2022-10-15T01:52:18;101922.41;;;14.33;100.00
63808;BME280;49961;43.970;22.868;2022-10-15T01:53:22;101929.59;;;14.34;100.00
63808;BME280;49961;43.970;22.868;2022-10-15T01:54:26;101930.72;;;14.36;100.00
63808;BME280;49961;43.970;22.868;2022-10-15T01:55:28;101926.72;;;14.37;100.00
63808;BME280;49961;43.970;22.868;2022-10-15T01:56:31;101930.28;;;14.38;100.00
63808;BME280;49961;43.970;22.868;2022-10-15T01:57:34;101933.94;;;14.35;100.00
63808;BME280;49961;43.970;22.868;2022-10-15T01:58:41;101925.84;;;14.40;100.00
63808;BME280;49961;43.970;22.868;2022-10-15T01:59:42;101846.69;;;13.92;100.00
63808;BME280;49961;43.970;22.868;2022-10-15T02:00:44;101930.34;;;14.34;100.00
63808;BME280;49961;43.970;22.868;2022-10-15T02:01:46;101917.31;;;14.28;100.00
63808;BME280;49961;43.970;22.868;2022-10-15T02:02:47;101935.03;;;14.41;100.00
63808;BME280;49961;43.970;22.868;2022-10-15T02:03:52;101938.97;;;14.43;100.00
63808;BME280;49961;43.970;22.868;2022-10-15T02:04:52;101934.94;;;14.44;100.00
63808;BME280;49961;43.970;22.868;2022-10-15T02:06:03;101894.41;;;14.17;100.00
63808;BME280;49961;43.970;22.868;2022-10-15T02:07:08;101947.31;;;14.43;100.00
63808;BME280;49961;43.970;22.868;2022-10-15T02:10:59;101938.03;;;14.50;100.00
63808;BME280;49961;43.970;22.868;2022-10-15T02:15:07;101938.13;;;14.46;100.00
63808;BME280;49961;43.970;22.868;2022-10-15T02:17:14;101930.59;;;14.43;100.00
63808;BME280;49961;43.970;22.868;2022-10-15T02:18:25;101943.38;;;14.41;100.00
63808;BME280;49961;43.970;22.868;2022-10-15T02:19:42;101836.22;;;13.76;100.00
63808;BME280;49961;43.970;22.868;2022-10-15T02:21:05;101936.31;;;14.36;100.00
63808;BME280;49961;43.970;22.868;2022-10-15T02:22:18;101938.66;;;14.38;100.00
63808;BME280;49961;43.970;22.868;2022-10-15T02:23:26;101930.72;;;14.36;100.00
63808;BME280;49961;43.970;22.868;2022-10-15T02:25:00;101953.31;;;14.42;100.00
63808;BME280;49961;43.970;22.868;2022-10-15T02:25:58;101939.75;;;14.44;100.00
63808;BME280;49961;43.970;22.868;2022-10-15T02:27:00;101937.75;;;14.44;100.00
63808;BME280;49961;43.970;22.868;2022-10-15T02:28:03;101936.16;;;14.43;100.00
63808;BME280;49961;43.970;22.868;2022-10-15T02:29:06;101950.69;;;14.35;100.00
63808;BME280;49961;43.970;22.868;2022-10-15T02:30:10;101948.22;;;14.37;100.00
63808;BME280;49961;43.970;22.868;2022-10-15T02:31:13;101942.66;;;14.37;100.00
63808;BME280;49961;43.970;22.868;2022-10-15T02:32:15;101948.22;;;14.37;100.00
63808;BME280;49961;43.970;22.868;2022-10-15T02:33:16;101910.03;;;14.11;100.00
63808;BME280;49961;43.970;22.868;2022-10-15T02:34:20;101929.78;;;14.23;100.00
63808;BME280;49961;43.970;22.868;2022-10-15T02:35:22;101948.97;;;14.41;100.00
63808;BME280;49961;43.970;22.868;2022-10-15T02:36:23;101873.34;;;13.93;100.00
63808;BME280;49961;43.970;22.868;2022-10-15T02:37:25;101952.47;;;14.45;100.00
63808;BME280;49961;43.970;22.868;2022-10-15T02:38:29;101942.09;;;14.45;100.00
63808;BME280;49961;43.970;22.868;2022-10-15T02:39:32;101961.19;;;14.47;100.00
63808;BME280;49961;43.970;22.868;2022-10-15T02:40:34;101945.69;;;14.46;100.00
63808;BME280;49961;43.970;22.868;2022-10-15T02:41:35;101946.03;;;14.48;100.00
63808;BME280;49961;43.970;22.868;2022-10-15T02:42:37;101951.19;;;14.49;100.00
63808;BME280;49961;43.970;22.868;2022-10-15T02:43:39;101955.19;;;14.48;100.00
63808;BME280;49961;43.970;22.868;2022-10-15T02:44:40;101924.84;;;14.31;100.00
63808;BME280;49961;43.970;22.868;2022-10-15T02:45:40;101901.97;;;14.20;100.00
63808;BME280;49961;43.970;22.868;2022-10-15T02:46:41;101953.22;;;14.49;100.00
63808;BME280;49961;43.970;22.868;2022-10-15T02:47:42;101895.97;;;14.18;100.00
63808;BME280;49961;43.970;22.868;2022-10-15T02:48:42;101948.75;;;14.51;100.00
63808;BME280;49961;43.970;22.868;2022-10-15T02:49:43;101949.91;;;14.54;100.00
63808;BME280;49961;43.970;22.868;2022-10-15T02:50:43;101949.84;;;14.57;100.00
63808;BME280;49961;43.970;22.868;2022-10-15T02:51:43;101950.63;;;14.58;100.00
63808;BME280;49961;43.970;22.868;2022-10-15T02:52:44;101952.56;;;14.61;100.00
63808;BME280;49961;43.970;22.868;2022-10-15T02:53:45;101954.94;;;14.62;100.00
63808;BME280;49961;43.970;22.868;2022-10-15T02:54:45;101939.75;;;14.63;100.00
63808;BME280;49961;43.970;22.868;2022-10-15T02:55:46;101946.91;;;14.64;100.00
63808;BME280;49961;43.970;22.868;2022-10-15T02:56:46;101896.53;;;14.32;100.00
63808;BME280;49961;43.970;22.868;2022-10-15T02:57:47;101956.00;;;14.68;100.00
63808;BME280;49961;43.970;22.868;2022-10-15T02:58:47;101951.56;;;14.71;100.00
63808;BME280;49961;43.970;22.868;2022-10-15T02:59:48;101959.53;;;14.72;100.00
63808;BME280;49961;43.970;22.868;2022-10-15T03:00:48;101948.72;;;14.74;100.00
63808;BME280;49961;43.970;22.868;2022-10-15T03:01:49;101957.88;;;14.75;100.00
63808;BME280;49961;43.970;22.868;2022-10-15T03:02:49;101951.84;;;14.76;100.00
63808;BME280;49961;43.970;22.868;2022-10-15T03:03:50;101950.66;;;14.77;100.00
63808;BME280;49961;43.970;22.868;2022-10-15T03:04:50;101943.06;;;14.78;100.00
63808;BME280;49961;43.970;22.868;2022-10-15T03:05:51;101922.66;;;14.61;100.00
63808;BME280;49961;43.970;22.868;2022-10-15T03:06:51;101946.72;;;14.75;100.00
63808;BME280;49961;43.970;22.868;2022-10-15T03:07:52;101949.50;;;14.75;100.00
63808;BME280;49961;43.970;22.868;2022-10-15T03:08:53;101910.56;;;14.48;100.00
63808;BME280;49961;43.970;22.868;2022-10-15T03:09:53;101952.31;;;14.75;100.00
63808;BME280;49961;43.970;22.868;2022-10-15T03:10:53;101949.84;;;14.77;100.00
63808;BME280;49961;43.970;22.868;2022-10-15T03:11:54;101949.84;;;14.77;100.00
63808;BME280;49961;43.970;22.868;2022-10-15T03:12:54;101949.94;;;14.73;100.00
63808;BME280;49961;43.970;22.868;2022-10-15T03:13:55;101956.28;;;14.74;100.00
63808;BME280;49961;43.970;22.868;2022-10-15T03:14:55;101955.09;;;14.75;100.00
63808;BME280;49961;43.970;22.868;2022-10-15T03:15:56;101962.25;;;14.76;100.00
63808;BME280;49961;43.970;22.868;2022-10-15T03:16:56;101955.84;;;14.75;100.00
63808;BME280;49961;43.970;22.868;2022-10-15T03:17:57;101949.50;;;14.75;100.00
63808;BME280;49961;43.970;22.868;2022-10-15T03:18:57;101964.50;;;14.61;100.00
63808;BME280;49961;43.970;22.868;2022-10-15T03:19:58;101956.72;;;14.72;100.00
63808;BME280;49961;43.970;22.868;2022-10-15T03:20:59;101948.78;;;14.71;100.00
63808;BME280;49961;43.970;22.868;2022-10-15T03:21:59;101955.63;;;14.66;100.00
63808;BME280;49961;43.970;22.868;2022-10-15T03:23:00;101933.16;;;14.54;100.00
63808;BME280;49961;43.970;22.868;2022-10-15T03:24:00;101956.09;;;14.65;100.00
63808;BME280;49961;43.970;22.868;2022-10-15T03:25:01;101950.19;;;14.59;100.00
63808;BME280;49961;43.970;22.868;2022-10-15T03:26:01;101952.56;;;14.61;100.00
63808;BME280;49961;43.970;22.868;2022-10-15T03:27:02;101951.03;;;14.56;100.00
63808;BME280;49961;43.970;22.868;2022-10-15T03:28:02;101938.59;;;14.41;100.00
63808;BME280;49961;43.970;22.868;2022-10-15T03:29:03;101953.97;;;14.49;100.00
63808;BME280;49961;43.970;22.868;2022-10-15T03:30:03;101956.69;;;14.53;100.00
63808;BME280;49961;43.970;22.868;2022-10-15T03:31:04;101963.06;;;14.53;100.00
63808;BME280;49961;43.970;22.868;2022-10-15T03:32:05;101961.50;;;14.52;100.00
63808;BME280;49961;43.970;22.868;2022-10-15T03:33:05;101952.06;;;14.46;100.00
63808;BME280;49961;43.970;22.868;2022-10-15T03:34:05;101960.44;;;14.46;100.00
63808;BME280;49961;43.970;22.868;2022-10-15T03:35:06;101952.19;;;14.39;100.00
63808;BME280;49961;43.970;22.868;2022-10-15T03:36:07;101968.00;;;14.46;100.00
63808;BME280;49961;43.970;22.868;2022-10-15T03:37:08;101960.44;;;14.46;100.00
63808;BME280;49961;43.970;22.868;2022-10-15T03:38:08;101963.16;;;14.50;100.00
63808;BME280;49961;43.970;22.868;2022-10-15T03:39:10;101953.22;;;14.49;100.00
63808;BME280;49961;43.970;22.868;2022-10-15T03:40:11;101941.03;;;14.39;100.00
63808;BME280;49961;43.970;22.868;2022-10-15T03:41:11;101965.13;;;14.49;100.00
63808;BME280;49961;43.970;22.868;2022-10-15T03:42:12;101918.63;;;14.23;100.00
63808;BME280;49961;43.970;22.868;2022-10-15T03:43:12;101957.06;;;14.55;100.00
63808;BME280;49961;43.970;22.868;2022-10-15T03:44:13;101930.28;;;14.38;100.00
63808;BME280;49961;43.970;22.868;2022-10-15T03:45:13;101948.97;;;14.60;100.00
63808;BME280;49961;43.970;22.868;2022-10-15T03:46:14;101956.19;;;14.58;100.00
63808;BME280;49961;43.970;22.868;2022-10-15T03:47:15;101963.31;;;14.62;100.00
63808;BME280;49961;43.970;22.868;2022-10-15T03:48:16;101947.56;;;14.52;100.00
63808;BME280;49961;43.970;22.868;2022-10-15T03:49:16;101954.78;;;14.50;100.00
63808;BME280;49961;43.970;22.868;2022-10-15T03:50:17;101909.91;;;14.18;100.00
63808;BME280;49961;43.970;22.868;2022-10-15T03:51:17;101960.78;;;14.48;100.00
63808;BME280;49961;43.970;22.868;2022-10-15T03:52:18;101956.84;;;14.46;100.00
63808;BME280;49961;43.970;22.868;2022-10-15T03:53:18;101954.41;;;14.48;100.00
63808;BME280;49961;43.970;22.868;2022-10-15T03:54:19;101962.69;;;14.51;100.00
63808;BME280;49961;43.970;22.868;2022-10-15T03:55:19;101959.50;;;14.53;100.00
63808;BME280;49961;43.970;22.868;2022-10-15T03:56:20;101965.22;;;14.46;100.00
63808;BME280;49961;43.970;22.868;2022-10-15T03:57:20;101956.13;;;14.42;100.00
63808;BME280;49961;43.970;22.868;2022-10-15T03:58:20;101956.91;;;14.42;100.00
63808;BME280;49961;43.970;22.868;2022-10-15T03:59:21;101958.06;;;14.45;100.00
63808;BME280;49961;43.970;22.868;2022-10-15T04:00:21;101960.44;;;14.46;100.00
63808;BME280;49961;43.970;22.868;2022-10-15T04:01:22;101951.75;;;14.41;100.00
63808;BME280;49961;43.970;22.868;2022-10-15T04:02:22;101955.28;;;14.45;100.00
63808;BME280;49961;43.970;22.868;2022-10-15T04:03:23;101951.59;;;14.48;100.00
63808;BME280;49961;43.970;22.868;2022-10-15T04:04:24;101956.41;;;14.47;100.00
63808;BME280;49961;43.970;22.868;2022-10-15T04:05:24;101958.84;;;14.45;100.00
63808;BME280;49961;43.970;22.868;2022-10-15T04:06:24;101922.91;;;14.28;100.00
63808;BME280;49961;43.970;22.868;2022-10-15T04:07:25;101951.69;;;14.44;100.00
63808;BME280;49961;43.970;22.868;2022-10-15T04:08:26;101820.56;;;13.63;100.00
63808;BME280;49961;43.970;22.868;2022-10-15T04:09:26;101950.41;;;14.49;100.00
63808;BME280;49961;43.970;22.868;2022-10-15T04:10:26;101952.75;;;14.50;100.00
63808;BME280;49961;43.970;22.868;2022-10-15T04:11:28;101957.25;;;14.44;100.00
63808;BME280;49961;43.970;22.868;2022-10-15T04:12:29;101951.75;;;14.41;100.00
63808;BME280;49961;43.970;22.868;2022-10-15T04:13:29;101955.75;;;14.40;100.00
63808;BME280;49961;43.970;22.868;2022-10-15T04:14:30;101893.88;;;14.02;100.00
63808;BME280;49961;43.970;22.868;2022-10-15T04:15:30;101957.25;;;14.44;100.00
63808;BME280;49961;43.970;22.868;2022-10-15T04:16:31;101909.38;;;14.03;100.00
63808;BME280;49961;43.970;22.868;2022-10-15T04:17:32;101970.19;;;14.35;100.00
63808;BME280;49961;43.970;22.868;2022-10-15T04:18:33;101961.75;;;14.38;100.00
63808;BME280;49961;43.970;22.868;2022-10-15T04:19:33;101940.13;;;14.23;100.00
63808;BME280;49961;43.970;22.868;2022-10-15T04:20:34;101968.50;;;14.41;100.00
63808;BME280;49961;43.970;22.868;2022-10-15T04:21:34;101959.31;;;14.40;100.00
63808;BME280;49961;43.970;22.868;2022-10-15T04:22:36;101967.69;;;14.40;100.00
63808;BME280;49961;43.970;22.868;2022-10-15T04:23:36;101965.28;;;14.42;100.00
63808;BME280;49961;43.970;22.868;2022-10-15T04:24:37;101963.72;;;14.41;100.00
63808;BME280;49961;43.970;22.868;2022-10-15T04:25:38;101877.13;;;13.83;100.00
63808;BME280;49961;43.970;22.868;2022-10-15T04:26:38;101962.56;;;14.39;100.00
63808;BME280;49961;43.970;22.868;2022-10-15T04:27:39;101966.59;;;14.34;100.00
63808;BME280;49961;43.970;22.868;2022-10-15T04:28:39;101966.19;;;14.36;100.00
63808;BME280;49961;43.970;22.868;2022-10-15T04:29:40;101959.13;;;14.31;100.00
63808;BME280;49961;43.970;22.868;2022-10-15T04:30:40;101965.84;;;14.34;100.00
63808;BME280;49961;43.970;22.868;2022-10-15T04:31:40;101965.38;;;14.35;100.00
63808;BME280;49961;43.970;22.868;2022-10-15T04:32:41;101970.53;;;14.37;100.00
63808;BME280;49961;43.970;22.868;2022-10-15T04:33:41;101971.75;;;14.36;100.00
63808;BME280;49961;43.970;22.868;2022-10-15T04:34:42;101938.97;;;14.20;100.00
63808;BME280;49961;43.970;22.868;2022-10-15T04:35:44;101970.63;;;14.33;100.00
63808;BME280;49961;43.970;22.868;2022-10-15T04:36:45;101969.81;;;14.33;100.00
63808;BME280;49961;43.970;22.868;2022-10-15T04:37:45;101969.81;;;14.33;100.00
63808;BME280;49961;43.970;22.868;2022-10-15T04:38:46;101965.47;;;14.32;100.00
63808;BME280;49961;43.970;22.868;2022-10-15T04:39:46;101969.88;;;14.29;100.00
63808;BME280;49961;43.970;22.868;2022-10-15T04:40:47;101971.44;;;14.30;100.00
63808;BME280;49961;43.970;22.868;2022-10-15T04:41:47;101973.47;;;14.30;100.00
63808;BME280;49961;43.970;22.868;2022-10-15T04:42:48;101987.41;;;14.30;100.00
63808;BME280;49961;43.970;22.868;2022-10-15T04:43:48;101981.03;;;14.29;100.00
63808;BME280;49961;43.970;22.868;2022-10-15T04:44:48;101983.81;;;14.29;100.00
63808;BME280;49961;43.970;22.868;2022-10-15T04:45:49;101979.13;;;14.26;100.00
63808;BME280;49961;43.970;22.868;2022-10-15T04:46:49;101964.91;;;14.17;100.00
63808;BME280;49961;43.970;22.868;2022-10-15T04:47:50;101983.53;;;14.24;100.00
63808;BME280;49961;43.970;22.868;2022-10-15T04:48:51;101987.19;;;14.17;100.00
63808;BME280;49961;43.970;22.868;2022-10-15T04:49:52;101985.63;;;14.16;100.00
63808;BME280;49961;43.970;22.868;2022-10-15T04:50:52;101978.09;;;14.13;100.00
63808;BME280;49961;43.970;22.868;2022-10-15T04:51:52;101977.31;;;14.13;100.00
63808;BME280;49961;43.970;22.868;2022-10-15T04:52:53;101990.47;;;14.12;100.00
63808;BME280;49961;43.970;22.868;2022-10-15T04:53:53;101994.03;;;14.13;100.00
63808;BME280;49961;43.970;22.868;2022-10-15T04:54:54;101992.88;;;14.10;100.00
63808;BME280;49961;43.970;22.868;2022-10-15T04:55:59;101974.72;;;14.02;100.00
63808;BME280;49961;43.970;22.868;2022-10-15T04:56:59;101995.25;;;14.12;100.00
63808;BME280;49961;43.970;22.868;2022-10-15T04:58:00;101997.69;;;14.10;100.00
63808;BME280;49961;43.970;22.868;2022-10-15T04:59:00;101996.88;;;14.09;100.00
63808;BME280;49961;43.970;22.868;2022-10-15T05:00:01;101994.97;;;14.06;100.00
63808;BME280;49961;43.970;22.868;2022-10-15T05:01:03;101993.81;;;14.04;100.00
63808;BME280;49961;43.970;22.868;2022-10-15T05:02:04;101922.88;;;13.59;100.00
63808;BME280;49961;43.970;22.868;2022-10-15T05:03:05;101994.22;;;14.02;100.00
63808;BME280;49961;43.970;22.868;2022-10-15T05:04:06;101993.53;;;13.95;100.00
63808;BME280;49961;43.970;22.868;2022-10-15T05:05:06;102003.13;;;13.94;100.00
63808;BME280;49961;43.970;22.868;2022-10-15T05:06:09;101993.91;;;13.97;100.00
63808;BME280;49961;43.970;22.868;2022-10-15T05:07:10;102005.50;;;13.95;100.00
63808;BME280;49961;43.970;22.868;2022-10-15T05:08:10;101979.06;;;13.80;100.00
63808;BME280;49961;43.970;22.868;2022-10-15T05:09:11;102003.91;;;13.94;100.00
63808;BME280;49961;43.970;22.868;2022-10-15T05:10:11;101999.91;;;13.95;100.00
63808;BME280;49961;43.970;22.868;2022-10-15T05:11:17;102008.28;;;13.95;100.00
63808;BME280;49961;43.970;22.868;2022-10-15T05:12:18;101999.59;;;13.90;100.00
63808;BME280;49961;43.970;22.868;2022-10-15T05:13:19;101999.91;;;13.95;100.00
63808;BME280;49961;43.970;22.868;2022-10-15T05:14:21;102001.56;;;13.93;100.00
63808;BME280;49961;43.970;22.868;2022-10-15T05:15:21;102000.34;;;13.94;100.00
63808;BME280;49961;43.970;22.868;2022-10-15T05:16:24;102001.13;;;13.94;100.00
63808;BME280;49961;43.970;22.868;2022-10-15T05:17:25;101998.31;;;13.94;100.00
63808;BME280;49961;43.970;22.868;2022-10-15T05:18:26;101995.53;;;13.94;100.00
63808;BME280;49961;43.970;22.868;2022-10-15T05:19:26;102002.38;;;13.90;100.00
63808;BME280;49961;43.970;22.868;2022-10-15T05:20:27;101996.06;;;13.86;100.00
63808;BME280;49961;43.970;22.868;2022-10-15T05:21:28;102000.44;;;13.87;100.00
63808;BME280;49961;43.970;22.868;2022-10-15T05:22:28;102002.44;;;13.86;100.00
63808;BME280;49961;43.970;22.868;2022-10-15T05:23:29;102004.44;;;13.86;100.00
63808;BME280;49961;43.970;22.868;2022-10-15T05:24:29;102007.41;;;13.75;100.00
63808;BME280;49961;43.970;22.868;2022-10-15T05:25:30;102002.59;;;13.76;100.00
63808;BME280;49961;43.970;22.868;2022-10-15T05:26:30;101998.25;;;13.75;100.00
63808;BME280;49961;43.970;22.868;2022-10-15T05:27:31;102008.56;;;13.78;100.00
63808;BME280;49961;43.970;22.868;2022-10-15T05:28:32;102016.47;;;13.79;100.00
63808;BME280;49961;43.970;22.868;2022-10-15T05:29:33;102014.16;;;13.74;100.00
63808;BME280;49961;43.970;22.868;2022-10-15T05:30:33;102024.47;;;13.77;100.00
63808;BME280;49961;43.970;22.868;2022-10-15T05:31:34;102020.88;;;13.77;100.00
63808;BME280;49961;43.970;22.868;2022-10-15T05:32:34;102022.47;;;13.78;100.00
63808;BME280;49961;43.970;22.868;2022-10-15T05:33:35;101935.34;;;13.24;100.00
63808;BME280;49961;43.970;22.868;2022-10-15T05:34:35;102024.47;;;13.77;100.00
63808;BME280;49961;43.970;22.868;2022-10-15T05:35:36;101996.03;;;13.63;100.00
63808;BME280;49961;43.970;22.868;2022-10-15T05:36:37;102027.66;;;13.76;100.00
63808;BME280;49961;43.970;22.868;2022-10-15T05:37:37;102023.31;;;13.75;100.00
63808;BME280;49961;43.970;22.868;2022-10-15T05:38:39;102031.31;;;13.73;100.00
63808;BME280;49961;43.970;22.868;2022-10-15T05:39:39;102030.16;;;13.70;100.00
63808;BME280;49961;43.970;22.868;2022-10-15T05:40:40;102000.53;;;13.53;100.00
63808;BME280;49961;43.970;22.868;2022-10-15T05:41:40;102028.13;;;13.71;100.00